Time;durP1;ratioP1;P1;durP2;ratioP2;P2;SDS_P1;SDS_P2;PMS_P1;PMS_P2;Temp;Humidity;BMP_temperature;BMP_pressure;BME280_temperature;BME280_humidity;BME280_pressure;Samples;Min_cycle;Max_cycle;Signal;HPM_P1;HPM_P2
2022/12/22 03:27:16;;;;;;;82.13;39.20;;;8.10;98.40;;;;;;5030683;28;20206;-67
2022/12/22 03:29:43;;;;;;;91.30;40.60;;;8.10;98.40;;;;;;5034142;28;20581;-67
2022/12/22 03:32:10;;;;;;;99.13;41.30;;;8.20;98.40;;;;;;5035684;28;20205;-67
2022/12/22 03:34:37;;;;;;;79.57;39.23;;;8.10;98.40;;;;;;5034638;28;20192;-67
2022/12/22 03:37:04;;;;;;;86.73;37.87;;;8.10;98.30;;;;;;5035799;28;20225;-67
2022/12/22 03:39:32;;;;;;;86.60;41.23;;;8.10;98.40;;;;;;5032201;28;20207;-67
2022/12/22 03:47:30;;;;;;;80.13;39.43;;;8.20;98.40;;;;;;5038160;28;20249;-67
2022/12/22 03:49:57;;;;;;;91.43;42.40;;;8.20;98.50;;;;;;5036624;28;20224;-67
2022/12/22 03:52:25;;;;;;;85.23;41.80;;;8.20;98.40;;;;;;5034178;28;20208;-67
2022/12/22 03:54:51;;;;;;;94.13;41.70;;;8.20;98.40;;;;;;5030661;28;20516;-66
2022/12/22 03:57:19;;;;;;;84.80;41.10;;;8.30;98.50;;;;;;5033381;28;20219;-67
2022/12/22 03:59:46;;;;;;;92.50;43.17;;;8.30;98.50;;;;;;5035853;28;20215;-67
2022/12/22 04:02:13;;;;;;;91.23;40.73;;;8.30;98.50;;;;;;5031590;28;20648;-67
2022/12/22 04:04:40;;;;;;;86.30;40.50;;;8.30;98.50;;;;;;5036487;28;20211;-67
2022/12/22 04:07:07;;;;;;;90.00;41.67;;;8.30;98.50;;;;;;5035820;28;20216;-66
2022/12/22 04:09:34;;;;;;;86.70;42.20;;;8.30;98.50;;;;;;5038687;28;20618;-66
2022/12/22 04:14:46;;;;;;;95.13;42.73;;;8.30;98.50;;;;;;5034509;28;20203;-67
2022/12/22 04:17:13;;;;;;;81.60;40.50;;;8.40;98.50;;;;;;5031106;28;20217;-67
2022/12/22 04:19:41;;;;;;;86.20;39.47;;;8.40;98.50;;;;;;5035355;28;20225;-67
2022/12/22 04:22:08;;;;;;;81.13;39.27;;;8.40;98.50;;;;;;5034349;28;20215;-67
2022/12/22 04:24:35;;;;;;;89.33;41.07;;;8.40;98.50;;;;;;5037013;28;20233;-67
2022/12/22 04:27:02;;;;;;;81.00;40.03;;;8.40;98.50;;;;;;5040779;28;20599;-66
2022/12/22 04:29:29;;;;;;;92.03;40.43;;;8.40;98.50;;;;;;5030735;28;20203;-67
2022/12/22 04:31:56;;;;;;;90.60;41.93;;;8.40;98.50;;;;;;5030114;28;20212;-67
2022/12/22 04:34:23;;;;;;;109.33;43.37;;;8.40;98.40;;;;;;5034214;28;20250;-67
2022/12/22 04:36:50;;;;;;;83.33;40.37;;;8.40;98.40;;;;;;5037662;28;20203;-67
2022/12/22 04:39:17;;;;;;;94.93;43.20;;;8.40;98.40;;;;;;5036678;28;20213;-67
2022/12/22 04:41:44;;;;;;;82.00;40.23;;;8.40;98.40;;;;;;5033640;28;20208;-67
2022/12/22 04:44:11;;;;;;;82.40;42.17;;;8.40;98.40;;;;;;5032427;28;20195;-67
2022/12/22 04:46:38;;;;;;;81.60;41.20;;;8.40;98.50;;;;;;5032387;28;20215;-67
2022/12/22 04:49:05;;;;;;;77.93;39.10;;;8.40;98.40;;;;;;5037298;28;20204;-67
2022/12/22 04:51:32;;;;;;;92.23;41.33;;;8.40;98.40;;;;;;5032838;28;20206;-67
2022/12/22 04:53:59;;;;;;;82.23;40.23;;;8.40;98.40;;;;;;5033566;28;20263;-67
2022/12/22 04:56:26;;;;;;;85.07;41.00;;;8.40;98.50;;;;;;5033178;28;20211;-67
2022/12/22 04:58:53;;;;;;;85.27;39.90;;;8.40;98.50;;;;;;5034053;28;20207;-67
2022/12/22 05:01:20;;;;;;;83.07;41.53;;;8.40;98.50;;;;;;5033774;28;20305;-67
2022/12/22 05:03:47;;;;;;;80.03;39.73;;;8.40;98.50;;;;;;5037244;28;20207;-67
2022/12/22 05:06:14;;;;;;;90.90;40.30;;;8.40;98.50;;;;;;5039880;28;20534;-67
2022/12/22 05:08:42;;;;;;;80.53;41.50;;;8.40;98.50;;;;;;5041104;28;20207;-67
2022/12/22 05:11:09;;;;;;;81.50;41.53;;;8.50;98.50;;;;;;5036876;28;20210;-67
2022/12/22 05:13:36;;;;;;;80.80;39.77;;;8.50;98.50;;;;;;5034559;28;20235;-67
2022/12/22 05:16:08;;;;;;;84.37;40.83;;;8.50;98.40;;;;;;5040382;28;20231;-67
2022/12/22 05:18:37;;;;;;;78.43;40.63;;;8.50;98.40;;;;;;5038045;28;20261;-67
2022/12/22 05:21:12;;;;;;;81.53;40.77;;;8.50;98.40;;;;;;5041075;28;20206;-67
2022/12/22 05:23:40;;;;;;;84.80;39.27;;;8.50;98.30;;;;;;5036167;28;20206;-67
2022/12/22 05:26:08;;;;;;;78.83;40.20;;;8.40;98.30;;;;;;5038392;28;20299;-67
2022/12/22 05:28:35;;;;;;;83.87;39.80;;;8.40;98.30;;;;;;5035386;28;20675;-67
2022/12/22 05:31:08;;;;;;;75.40;40.63;;;8.40;98.40;;;;;;5039187;28;20195;-67
2022/12/22 05:33:36;;;;;;;82.40;40.43;;;8.40;98.40;;;;;;5038399;28;20204;-67
2022/12/22 05:36:03;;;;;;;76.87;41.30;;;8.40;98.40;;;;;;5037124;28;20563;-67
2022/12/22 05:38:30;;;;;;;78.73;40.93;;;8.40;98.40;;;;;;5040755;28;20272;-67
2022/12/22 05:40:57;;;;;;;80.47;40.73;;;8.40;98.40;;;;;;5036744;28;20223;-67
2022/12/22 05:43:30;;;;;;;78.00;40.50;;;8.40;98.30;;;;;;5037161;28;20214;-67
2022/12/22 05:46:04;;;;;;;79.37;39.70;;;8.40;98.30;;;;;;5037357;28;20699;-67
2022/12/22 05:48:32;;;;;;;80.73;38.83;;;8.40;98.30;;;;;;5037817;28;20296;-67
2022/12/22 05:51:05;;;;;;;80.37;38.53;;;8.40;98.30;;;;;;5038331;28;20285;-67
2022/12/22 05:53:33;;;;;;;77.50;38.70;;;8.40;98.40;;;;;;5037188;28;20534;-67
2022/12/22 05:56:00;;;;;;;74.50;39.73;;;8.40;98.40;;;;;;5035007;28;20289;-67
2022/12/22 05:58:27;;;;;;;73.63;38.43;;;8.40;98.40;;;;;;5034630;28;20763;-66
2022/12/22 06:00:58;;;;;;;75.80;39.10;;;8.40;98.40;;;;;;5038746;28;20200;-67
2022/12/22 06:03:26;;;;;;;84.40;39.90;;;8.40;98.40;;;;;;5036985;28;20644;-67
2022/12/22 06:05:54;;;;;;;76.17;39.00;;;8.40;98.40;;;;;;5035968;28;20199;-67
2022/12/22 06:08:22;;;;;;;74.70;38.93;;;8.40;98.40;;;;;;5042269;28;20246;-67
2022/12/22 06:10:49;;;;;;;70.77;37.33;;;8.40;98.40;;;;;;5036753;28;20214;-67
2022/12/22 06:13:16;;;;;;;71.53;37.20;;;8.40;98.40;;;;;;5032733;28;20235;-67
2022/12/22 06:15:43;;;;;;;72.27;37.77;;;8.50;98.40;;;;;;5036009;28;20220;-66
2022/12/22 06:18:10;;;;;;;70.53;37.73;;;8.40;98.40;;;;;;5038192;28;20202;-67
2022/12/22 06:20:37;;;;;;;80.47;38.63;;;8.40;98.40;;;;;;5035972;28;20203;-67
2022/12/22 06:23:04;;;;;;;77.27;40.03;;;8.50;98.50;;;;;;5036276;28;20199;-67
2022/12/22 06:25:32;;;;;;;73.53;39.90;;;8.40;98.40;;;;;;5039134;28;20201;-67
2022/12/22 06:27:59;;;;;;;78.20;40.33;;;8.50;98.50;;;;;;5036225;28;20226;-67
2022/12/22 06:30:26;;;;;;;71.93;40.73;;;8.50;98.50;;;;;;5037280;28;20207;-67
2022/12/22 06:33:00;;;;;;;77.87;41.70;;;8.50;98.50;;;;;;5035232;28;20191;-67
2022/12/22 06:35:27;;;;;;;77.93;40.23;;;8.50;98.50;;;;;;5039095;28;20227;-67
2022/12/22 06:37:54;;;;;;;77.80;39.97;;;8.50;98.50;;;;;;5040606;28;20207;-67
2022/12/22 06:40:21;;;;;;;75.50;40.93;;;8.40;98.50;;;;;;5033576;28;20258;-67
2022/12/22 06:45:41;;;;;;;75.53;41.70;;;8.50;98.50;;;;;;5035252;28;20226;-67
2022/12/22 06:48:10;;;;;;;78.67;40.20;;;8.50;98.40;;;;;;5036297;28;20219;-66
2022/12/22 06:50:37;;;;;;;69.47;40.20;;;8.50;98.40;;;;;;5036554;28;20203;-67
2022/12/22 06:53:05;;;;;;;73.77;39.87;;;8.40;98.30;;;;;;5035424;28;20531;-67
2022/12/22 06:55:32;;;;;;;70.13;40.87;;;8.50;98.40;;;;;;5035261;28;20203;-67
2022/12/22 06:57:59;;;;;;;75.87;40.43;;;8.50;98.40;;;;;;5037554;28;20656;-67
2022/12/22 07:00:27;;;;;;;69.63;41.13;;;8.50;98.40;;;;;;5036018;28;20210;-67
2022/12/22 07:02:54;;;;;;;70.87;39.93;;;8.50;98.50;;;;;;5035741;28;20206;-67
2022/12/22 07:05:22;;;;;;;76.33;41.53;;;8.50;98.40;;;;;;5035839;28;20202;-67
2022/12/22 07:07:50;;;;;;;77.03;40.33;;;8.50;98.40;;;;;;5034585;28;20231;-67
2022/12/22 07:10:17;;;;;;;79.33;42.13;;;8.50;98.30;;;;;;5036758;28;20694;-67
2022/12/22 07:12:44;;;;;;;77.50;42.30;;;8.50;98.30;;;;;;5034579;28;20266;-67
2022/12/22 07:15:11;;;;;;;75.63;41.77;;;8.50;98.30;;;;;;5037022;28;20199;-67
2022/12/22 07:17:40;;;;;;;71.83;39.63;;;8.50;98.30;;;;;;5039040;28;20237;-67
2022/12/22 07:20:07;;;;;;;69.97;40.30;;;8.50;98.30;;;;;;5034991;28;20203;-67
2022/12/22 07:22:35;;;;;;;74.47;41.30;;;8.50;98.30;;;;;;5036195;28;20211;-67
2022/12/22 07:25:02;;;;;;;76.83;40.77;;;8.50;98.60;;;;;;5039550;28;20691;-67
2022/12/22 07:27:29;;;;;;;73.70;40.33;;;8.50;98.40;;;;;;5034364;28;20215;-67
2022/12/22 07:29:56;;;;;;;79.23;42.30;;;8.50;98.50;;;;;;5036671;28;20206;-67
2022/12/22 07:32:23;;;;;;;81.03;43.30;;;8.50;98.50;;;;;;5035176;28;20238;-67
2022/12/22 07:34:50;;;;;;;70.90;40.90;;;8.60;98.50;;;;;;5035471;28;20222;-67
2022/12/22 07:37:17;;;;;;;76.37;40.63;;;8.60;98.50;;;;;;5036515;28;20207;-67
2022/12/22 07:39:44;;;;;;;76.83;39.80;;;8.60;98.50;;;;;;5038167;28;20203;-67
2022/12/22 07:44:56;;;;;;;78.70;42.77;;;8.70;98.50;;;;;;5034106;28;20196;-67
2022/12/22 07:47:23;;;;;;;79.80;40.87;;;8.70;98.50;;;;;;5036665;28;20217;-67
2022/12/22 07:52:45;;;;;;;71.77;40.40;;;8.70;98.50;;;;;;5032530;28;20258;-67
2022/12/22 07:55:12;;;;;;;78.93;41.77;;;8.70;98.40;;;;;;5034190;28;20203;-67
2022/12/22 07:57:40;;;;;;;78.57;41.30;;;8.80;98.40;;;;;;5034686;28;20211;-67
2022/12/22 08:00:07;;;;;;;81.70;43.23;;;8.80;98.40;;;;;;5036416;28;20207;-67
2022/12/22 08:02:38;;;;;;;73.47;40.90;;;8.80;98.40;;;;;;5034149;28;20538;-67
2022/12/22 08:05:06;;;;;;;70.00;39.90;;;8.80;98.40;;;;;;5037691;28;20200;-67
2022/12/22 08:07:34;;;;;;;71.73;39.63;;;8.90;98.40;;;;;;5037702;28;20615;-67
2022/12/22 08:10:01;;;;;;;74.07;41.00;;;8.90;98.40;;;;;;5035480;28;20202;-66
2022/12/22 08:12:28;;;;;;;73.63;39.03;;;8.90;98.40;;;;;;5034559;28;20223;-67
2022/12/22 08:14:55;;;;;;;69.13;39.23;;;8.90;98.30;;;;;;5032312;28;20200;-67
2022/12/22 08:17:22;;;;;;;79.53;39.87;;;9.00;98.30;;;;;;5036989;28;20218;-66
2022/12/22 08:19:49;;;;;;;72.30;39.33;;;9.00;98.40;;;;;;5033007;28;20207;-67
2022/12/22 08:22:17;;;;;;;71.07;39.57;;;9.00;98.60;;;;;;5035188;28;20684;-66
2022/12/22 08:24:44;;;;;;;66.43;39.10;;;9.00;98.60;;;;;;5030052;28;20203;-67
2022/12/22 08:27:15;;;;;;;69.17;40.63;;;9.10;98.30;;;;;;5034313;28;20503;-67
2022/12/22 08:29:56;;;;;;;68.90;41.17;;;9.10;98.30;;;;;;5033581;28;20191;-67
2022/12/22 08:32:23;;;;;;;64.73;36.63;;;9.10;98.20;;;;;;5032201;28;20204;-66
2022/12/22 08:34:51;;;;;;;63.60;38.43;;;9.20;98.10;;;;;;5035362;28;20297;-67
2022/12/22 08:37:23;;;;;;;74.00;39.70;;;9.10;97.90;;;;;;5035372;28;20206;-67
2022/12/22 08:39:56;;;;;;;73.07;38.47;;;9.10;97.80;;;;;;5033851;28;20207;-67
2022/12/22 08:42:25;;;;;;;70.47;39.80;;;9.10;97.80;;;;;;5030609;28;20258;-66
2022/12/22 08:44:52;;;;;;;64.07;39.33;;;9.10;97.90;;;;;;5035204;28;20632;-66
2022/12/22 08:47:20;;;;;;;65.80;38.10;;;9.20;97.90;;;;;;5035000;28;20191;-66
2022/12/22 08:49:48;;;;;;;70.97;40.90;;;9.20;97.70;;;;;;5035702;28;20223;-66
2022/12/22 08:52:15;;;;;;;73.03;40.77;;;9.20;97.60;;;;;;5033585;28;20517;-66
2022/12/22 08:54:45;;;;;;;75.63;42.63;;;9.20;97.60;;;;;;5032993;28;20643;-67
2022/12/22 08:57:12;;;;;;;71.07;45.13;;;9.20;97.60;;;;;;5034309;28;20677;-67
2022/12/22 08:59:39;;;;;;;73.77;44.80;;;9.20;97.60;;;;;;5034916;28;20641;-66
2022/12/22 09:02:06;;;;;;;76.13;46.40;;;9.20;97.70;;;;;;5032265;28;20634;-67
2022/12/22 09:04:33;;;;;;;335.97;198.83;;;9.30;97.80;;;;;;5035650;28;20207;-66
2022/12/22 09:07:03;;;;;;;341.10;198.37;;;9.30;97.80;;;;;;5034528;28;20196;-67
2022/12/22 09:09:32;;;;;;;1308.23;507.00;;;9.40;97.90;;;;;;5034031;28;20208;-66
2022/12/22 09:12:00;;;;;;;103.60;59.90;;;9.40;97.70;;;;;;5032653;28;20289;-67
2022/12/22 09:14:27;;;;;;;81.83;46.93;;;9.50;97.70;;;;;;5034897;28;20205;-66
2022/12/22 09:16:55;;;;;;;77.23;46.27;;;9.50;97.70;;;;;;5036056;28;20200;-67
2022/12/22 09:19:22;;;;;;;75.47;45.00;;;9.50;97.70;;;;;;5035714;28;20271;-66
2022/12/22 09:21:49;;;;;;;90.30;53.20;;;9.60;97.60;;;;;;5033418;28;20203;-66
2022/12/22 09:24:17;;;;;;;81.73;47.37;;;9.70;97.60;;;;;;5032131;28;20517;-66
2022/12/22 09:26:44;;;;;;;88.37;50.83;;;9.70;97.50;;;;;;5029396;28;20206;-66
2022/12/22 09:29:14;;;;;;;81.43;48.57;;;9.70;97.50;;;;;;5032876;28;20212;-67
2022/12/22 09:31:42;;;;;;;70.43;45.07;;;9.80;97.50;;;;;;5034251;28;20204;-66
2022/12/22 09:34:10;;;;;;;81.40;47.60;;;9.80;97.40;;;;;;5036825;28;20202;-67
2022/12/22 09:36:44;;;;;;;77.10;48.80;;;9.90;97.40;;;;;;5035107;28;20589;-66
2022/12/22 09:39:11;;;;;;;77.83;47.63;;;9.90;97.40;;;;;;5034092;28;20593;-66
2022/12/22 09:41:52;;;;;;;79.37;47.97;;;10.00;97.40;;;;;;5034178;28;20208;-66
2022/12/22 09:44:24;;;;;;;74.87;48.13;;;10.00;97.30;;;;;;5033074;28;20264;-66
2022/12/22 09:46:54;;;;;;;79.73;49.97;;;10.10;97.30;;;;;;5035082;28;20215;-66
2022/12/22 09:49:21;;;;;;;84.03;52.20;;;10.20;97.20;;;;;;5039096;28;20286;-66
2022/12/22 09:51:54;;;;;;;81.90;51.37;;;10.20;97.10;;;;;;5038281;28;20206;-66
2022/12/22 09:54:23;;;;;;;76.27;47.57;;;10.20;97.00;;;;;;5032996;28;20196;-66
2022/12/22 09:56:50;;;;;;;73.73;47.33;;;10.30;97.00;;;;;;5037340;28;20202;-66
2022/12/22 09:59:19;;;;;;;71.50;46.77;;;10.30;96.90;;;;;;5037073;28;20212;-66
2022/12/22 10:02:14;;;;;;;72.93;45.23;;;10.30;96.90;;;;;;5038116;28;20197;-66
2022/12/22 10:05:13;;;;;;;73.23;45.63;;;10.30;96.80;;;;;;5034159;28;20657;-66
2022/12/22 10:07:41;;;;;;;71.23;43.83;;;10.40;96.80;;;;;;5027263;28;20220;-66
2022/12/22 10:10:19;;;;;;;70.43;43.63;;;10.40;96.70;;;;;;5036425;28;20196;-68
2022/12/22 10:12:48;;;;;;;71.70;45.07;;;10.40;96.60;;;;;;5036215;28;20236;-67
2022/12/22 10:15:15;;;;;;;64.77;41.57;;;10.40;96.30;;;;;;5036381;28;20540;-66
2022/12/22 10:17:53;;;;;;;70.43;44.20;;;10.40;96.20;;;;;;5039751;28;20298;-65
2022/12/22 10:20:20;;;;;;;66.87;42.03;;;10.40;96.20;;;;;;5037558;28;20203;-66
2022/12/22 10:23:00;;;;;;;59.10;40.07;;;10.40;96.20;;;;;;5036387;28;20670;-65
2022/12/22 10:25:37;;;;;;;67.57;41.87;;;10.40;96.20;;;;;;5036012;28;20195;-66
2022/12/22 10:28:37;;;;;;;60.30;39.60;;;10.40;96.10;;;;;;5036774;28;20672;-66
2022/12/22 10:31:24;;;;;;;64.77;42.07;;;10.40;96.10;;;;;;5034027;28;20195;-65
2022/12/22 10:34:09;;;;;;;64.20;40.43;;;10.40;96.00;;;;;;5036407;28;20195;-67
2022/12/22 10:36:37;;;;;;;58.50;36.37;;;10.40;96.00;;;;;;5043798;28;20224;-65
2022/12/22 10:39:07;;;;;;;54.67;36.13;;;10.40;96.00;;;;;;5033636;28;20213;-65
2022/12/22 10:41:41;;;;;;;54.40;37.47;;;10.40;96.00;;;;;;5035916;28;20200;-65
2022/12/22 10:44:21;;;;;;;57.60;37.13;;;10.40;95.90;;;;;;5034596;28;20559;-66
2022/12/22 10:46:59;;;;;;;51.47;36.07;;;10.40;95.80;;;;;;5035192;28;20238;-65
2022/12/22 10:49:34;;;;;;;54.47;36.40;;;10.40;95.70;;;;;;5033042;28;20641;-66
2022/12/22 10:52:16;;;;;;;52.67;35.27;;;10.40;95.40;;;;;;5035485;28;20649;-65
2022/12/22 10:54:44;;;;;;;51.33;35.77;;;10.40;95.30;;;;;;5034386;28;20205;-66
2022/12/22 10:57:15;;;;;;;57.00;35.40;;;10.40;95.10;;;;;;5036085;28;20208;-66
2022/12/22 10:59:56;;;;;;;53.50;35.60;;;10.40;95.20;;;;;;5032982;28;20203;-65
2022/12/22 11:02:23;;;;;;;51.17;33.67;;;10.40;95.30;;;;;;5035208;28;20283;-66
2022/12/22 11:04:51;;;;;;;49.00;33.87;;;10.40;95.30;;;;;;5038163;28;20216;-64
2022/12/22 11:07:19;;;;;;;48.13;33.57;;;10.40;95.10;;;;;;5038377;28;20256;-65
2022/12/22 11:09:46;;;;;;;52.13;36.33;;;10.40;94.50;;;;;;5036479;28;20246;-65
2022/12/22 11:12:13;;;;;;;51.03;32.33;;;10.40;94.40;;;;;;5032622;28;20252;-65
2022/12/22 11:15:08;;;;;;;49.90;35.07;;;10.40;94.60;;;;;;5036249;28;20200;-65
2022/12/22 11:18:20;;;;;;;49.67;34.50;;;10.40;94.30;;;;;;5035103;28;20190;-66
2022/12/22 11:20:53;;;;;;;51.83;34.63;;;10.40;94.20;;;;;;5035776;28;20264;-65
2022/12/22 11:23:37;;;;;;;49.40;35.27;;;10.40;94.40;;;;;;5031679;28;20201;-66
2022/12/22 11:26:29;;;;;;;56.93;35.40;;;10.40;94.50;;;;;;5033963;28;20204;-66
2022/12/22 11:29:23;;;;;;;52.80;36.47;;;10.50;94.60;;;;;;5037472;28;20247;-66
2022/12/22 11:32:00;;;;;;;60.60;37.27;;;10.60;94.60;;;;;;5034643;28;20657;-66
2022/12/22 11:34:42;;;;;;;51.90;34.50;;;10.70;94.70;;;;;;5037310;28;20201;-66
2022/12/22 11:37:34;;;;;;;54.33;35.00;;;10.80;94.20;;;;;;5022246;28;20216;-66
2022/12/22 11:40:31;;;;;;;45.63;30.67;;;10.90;93.80;;;;;;5034947;28;20607;-65
2022/12/22 11:43:32;;;;;;;49.27;34.10;;;11.00;93.70;;;;;;5032670;28;20530;-65
2022/12/22 11:46:11;;;;;;;46.90;33.00;;;11.00;93.40;;;;;;5033370;28;20200;-65
2022/12/22 11:49:07;;;;;;;49.60;32.83;;;11.00;93.40;;;;;;5040414;28;20763;-65
2022/12/22 11:51:55;;;;;;;46.83;32.10;;;11.00;93.00;;;;;;5033855;28;20472;-65
2022/12/22 11:55:01;;;;;;;49.13;32.73;;;11.00;92.80;;;;;;5031976;28;20205;-65
2022/12/22 11:58:04;;;;;;;47.00;34.43;;;10.90;93.00;;;;;;5035672;28;20218;-65
2022/12/22 12:00:41;;;;;;;52.23;35.00;;;10.90;93.00;;;;;;5035141;28;20287;-65
2022/12/22 12:03:50;;;;;;;47.83;33.43;;;10.90;93.10;;;;;;5034000;28;20687;-65
2022/12/22 12:06:38;;;;;;;52.47;34.40;;;10.90;93.40;;;;;;5040287;28;20191;-65
2022/12/22 12:09:27;;;;;;;51.23;32.87;;;10.90;93.30;;;;;;5032180;28;20212;-65
2022/12/22 12:12:03;;;;;;;50.57;33.33;;;10.90;92.90;;;;;;5033300;28;20338;-65
2022/12/22 12:14:55;;;;;;;53.80;33.67;;;10.80;92.60;;;;;;5036214;28;20223;-65
2022/12/22 12:17:47;;;;;;;50.30;32.77;;;10.80;92.80;;;;;;5035141;28;20284;-65
2022/12/22 12:20:26;;;;;;;48.77;32.63;;;10.70;92.90;;;;;;5033406;28;20199;-65
2022/12/22 12:23:11;;;;;;;47.07;33.40;;;10.60;92.90;;;;;;5033555;28;20197;-65
2022/12/22 12:25:44;;;;;;;49.57;34.37;;;10.50;93.10;;;;;;5033811;28;20287;-65
2022/12/22 12:28:50;;;;;;;52.40;34.77;;;10.50;93.30;;;;;;5032043;28;20202;-65
2022/12/22 12:31:23;;;;;;;55.77;34.93;;;10.50;93.50;;;;;;5025069;28;20280;-65
2022/12/22 12:33:57;;;;;;;50.83;34.60;;;10.50;93.30;;;;;;5035688;28;20282;-65
2022/12/22 12:36:50;;;;;;;55.47;34.97;;;10.50;93.40;;;;;;5036293;28;20251;-65
2022/12/22 12:39:36;;;;;;;50.77;33.97;;;10.40;93.50;;;;;;5033408;28;20287;-65
2022/12/22 12:42:24;;;;;;;54.50;35.00;;;10.40;93.70;;;;;;5033549;28;20205;-64
2022/12/22 12:44:52;;;;;;;53.07;33.53;;;10.40;93.80;;;;;;5035974;28;20191;-65
2022/12/22 12:47:27;;;;;;;50.37;34.17;;;10.50;93.60;;;;;;5031492;28;20326;-65
2022/12/22 12:50:03;;;;;;;53.33;34.80;;;10.40;93.50;;;;;;5033952;28;20216;-65
2022/12/22 12:52:39;;;;;;;54.13;33.67;;;10.40;93.50;;;;;;5030463;28;20202;-65
2022/12/22 12:55:28;;;;;;;56.90;36.70;;;10.40;93.60;;;;;;5033082;28;20195;-65
2022/12/22 12:58:02;;;;;;;54.57;36.57;;;10.40;93.70;;;;;;5035537;28;20652;-65
2022/12/22 13:00:32;;;;;;;54.13;35.93;;;10.40;93.80;;;;;;5035575;28;20404;-64
2022/12/22 13:03:01;;;;;;;58.00;37.07;;;10.50;94.00;;;;;;5032936;28;20208;-65
2022/12/22 13:05:59;;;;;;;53.93;37.03;;;10.50;94.10;;;;;;5033700;28;20214;-65
2022/12/22 13:08:30;;;;;;;58.30;39.60;;;10.50;94.20;;;;;;5034314;28;20663;-65
2022/12/22 13:10:57;;;;;;;56.87;36.77;;;10.60;94.20;;;;;;5036944;28;20227;-65
2022/12/22 13:13:24;;;;;;;55.80;37.40;;;10.70;94.20;;;;;;5034541;28;20590;-65
2022/12/22 13:16:02;;;;;;;53.03;35.83;;;10.70;94.20;;;;;;5038141;28;20217;-65
2022/12/22 13:18:32;;;;;;;55.60;37.20;;;10.80;94.20;;;;;;5030464;28;20221;-65
2022/12/22 13:21:01;;;;;;;55.33;36.87;;;10.80;94.10;;;;;;5031040;28;20285;-65
2022/12/22 13:23:54;;;;;;;57.27;36.83;;;10.80;94.10;;;;;;5035114;28;20462;-65
2022/12/22 13:26:43;;;;;;;58.97;38.20;;;10.90;94.10;;;;;;5032090;28;20217;-65
2022/12/22 13:29:27;;;;;;;53.73;35.73;;;10.90;94.00;;;;;;5037691;28;20308;-65
2022/12/22 13:32:13;;;;;;;51.87;34.60;;;10.90;94.00;;;;;;5027606;28;20198;-65
2022/12/22 13:34:47;;;;;;;51.77;34.13;;;10.90;93.90;;;;;;5037705;28;20209;-65
2022/12/22 13:37:44;;;;;;;53.93;36.37;;;10.90;93.90;;;;;;5040114;28;20204;-65
2022/12/22 13:40:19;;;;;;;54.70;35.93;;;10.90;93.90;;;;;;5034213;28;20552;-65
2022/12/22 13:42:52;;;;;;;51.40;36.50;;;10.90;93.90;;;;;;5037619;28;20262;-65
2022/12/22 13:45:42;;;;;;;52.60;37.67;;;10.90;93.80;;;;;;5046289;28;20209;-65
2022/12/22 13:48:25;;;;;;;58.80;38.67;;;10.90;93.70;;;;;;5034645;28;20244;-65
2022/12/22 13:50:56;;;;;;;56.90;36.57;;;10.90;93.70;;;;;;5038407;28;20209;-65
2022/12/22 13:53:31;;;;;;;55.33;36.83;;;10.90;93.70;;;;;;5036477;28;20198;-65
2022/12/22 13:56:26;;;;;;;51.70;34.73;;;10.90;93.60;;;;;;5035520;28;20271;-65
2022/12/22 13:58:58;;;;;;;52.00;33.40;;;10.90;93.60;;;;;;5039075;28;20301;-65
2022/12/22 14:01:25;;;;;;;54.53;33.70;;;10.90;93.60;;;;;;5037446;28;20202;-65
2022/12/22 14:04:00;;;;;;;52.47;33.97;;;10.90;93.60;;;;;;5038909;28;20218;-65
2022/12/22 14:06:39;;;;;;;50.40;34.47;;;10.90;93.50;;;;;;5042732;28;20227;-65
2022/12/22 14:09:14;;;;;;;52.43;34.77;;;10.90;93.60;;;;;;5037529;28;20205;-65
2022/12/22 14:11:45;;;;;;;52.57;32.87;;;11.00;93.60;;;;;;5037256;28;20253;-65
2022/12/22 14:14:27;;;;;;;47.30;31.97;;;10.90;93.60;;;;;;5038140;28;20658;-65
2022/12/22 14:16:59;;;;;;;44.10;30.80;;;10.90;93.60;;;;;;5037255;28;20241;-65
2022/12/22 14:19:35;;;;;;;41.97;29.87;;;10.90;93.50;;;;;;5039262;28;20197;-65
2022/12/22 14:22:16;;;;;;;42.80;31.07;;;10.80;93.50;;;;;;5035343;28;20205;-65
2022/12/22 14:24:56;;;;;;;52.83;32.13;;;10.80;93.50;;;;;;5036194;28;20529;-65
2022/12/22 14:27:37;;;;;;;47.20;29.83;;;10.80;93.50;;;;;;5039967;28;20259;-65
2022/12/22 14:30:15;;;;;;;48.57;31.13;;;10.80;93.40;;;;;;5036613;28;20292;-65
2022/12/22 14:32:46;;;;;;;47.43;30.30;;;10.80;93.40;;;;;;5032597;28;20206;-65
2022/12/22 14:35:20;;;;;;;47.43;31.10;;;10.70;93.40;;;;;;5052469;28;20198;-65
2022/12/22 14:37:51;;;;;;;51.43;30.40;;;10.70;93.50;;;;;;5035343;28;20202;-65
2022/12/22 14:40:38;;;;;;;49.17;30.47;;;10.70;93.60;;;;;;5036213;28;20224;-65
2022/12/22 14:43:22;;;;;;;51.07;30.07;;;10.60;93.60;;;;;;5035645;28;20202;-65
2022/12/22 14:45:50;;;;;;;50.10;31.53;;;10.60;93.70;;;;;;5034854;28;20209;-65
2022/12/22 14:48:29;;;;;;;43.57;28.50;;;10.60;93.70;;;;;;5039033;28;20206;-65
2022/12/22 14:50:56;;;;;;;41.90;29.17;;;10.60;93.80;;;;;;5034096;28;20218;-64
2022/12/22 14:53:28;;;;;;;46.93;31.43;;;10.50;93.90;;;;;;5034966;28;20264;-65
2022/12/22 14:55:55;;;;;;;43.93;30.73;;;10.50;94.00;;;;;;5037146;28;20253;-65
2022/12/22 14:58:33;;;;;;;52.83;31.23;;;10.40;94.00;;;;;;5037728;28;20202;-65
2022/12/22 15:01:25;;;;;;;48.73;31.53;;;10.40;94.10;;;;;;5035786;28;20202;-65
2022/12/22 15:04:22;;;;;;;48.73;31.50;;;10.30;94.10;;;;;;5033658;28;20205;-65
2022/12/22 15:06:49;;;;;;;46.23;29.70;;;10.30;94.10;;;;;;5031954;28;20642;-65
2022/12/22 15:09:16;;;;;;;50.20;31.67;;;10.30;94.20;;;;;;5034387;28;20209;-65
2022/12/22 15:12:09;;;;;;;41.63;28.40;;;10.20;94.20;;;;;;5035706;28;20375;-65
2022/12/22 15:14:37;;;;;;;49.27;30.20;;;10.20;94.20;;;;;;5034850;28;20208;-65
2022/12/22 15:17:11;;;;;;;42.60;29.87;;;10.10;94.20;;;;;;5034201;28;20198;-65
2022/12/22 15:19:38;;;;;;;41.07;29.17;;;10.10;94.30;;;;;;5036274;28;20200;-65
2022/12/22 15:22:08;;;;;;;52.47;31.07;;;10.00;94.40;;;;;;5033086;28;20196;-65
2022/12/22 15:24:35;;;;;;;48.80;30.60;;;10.00;94.40;;;;;;5032946;28;20201;-65
2022/12/22 15:27:02;;;;;;;43.10;28.70;;;9.90;94.50;;;;;;5035130;28;20574;-65
2022/12/22 15:29:29;;;;;;;46.03;32.27;;;9.80;94.70;;;;;;5034110;28;20609;-65
2022/12/22 15:31:56;;;;;;;50.30;31.63;;;9.80;94.80;;;;;;5034835;28;20231;-64
2022/12/22 15:34:30;;;;;;;48.77;32.83;;;9.70;94.90;;;;;;5031470;28;20204;-65
2022/12/22 15:36:58;;;;;;;48.10;31.67;;;9.70;95.00;;;;;;5033052;28;20656;-65
2022/12/22 15:39:25;;;;;;;42.90;30.90;;;9.70;95.10;;;;;;5036695;28;20714;-65
2022/12/22 15:41:53;;;;;;;49.10;30.70;;;9.70;95.20;;;;;;5033967;28;20204;-67
2022/12/22 15:44:21;;;;;;;46.70;30.87;;;9.70;95.30;;;;;;5033392;28;20208;-65
2022/12/22 15:46:54;;;;;;;42.27;28.57;;;9.60;95.30;;;;;;5035644;28;20202;-66
2022/12/22 15:49:26;;;;;;;41.50;30.13;;;9.50;95.30;;;;;;5024328;28;20229;-66
2022/12/22 15:52:00;;;;;;;41.77;28.20;;;9.50;95.30;;;;;;5033225;28;20216;-64
2022/12/22 15:54:28;;;;;;;50.27;32.23;;;9.50;95.40;;;;;;5033115;28;20270;-65
2022/12/22 15:56:55;;;;;;;49.80;32.87;;;9.40;95.40;;;;;;5035109;28;20195;-65
2022/12/22 15:59:27;;;;;;;44.53;29.07;;;9.40;95.50;;;;;;5035804;28;20566;-65
2022/12/22 16:01:56;;;;;;;38.47;25.83;;;9.30;95.60;;;;;;5032732;28;20204;-65
2022/12/22 16:04:31;;;;;;;40.87;25.77;;;9.30;95.70;;;;;;5037030;28;20575;-66
2022/12/22 16:06:59;;;;;;;45.37;28.23;;;9.20;95.70;;;;;;5036492;28;20278;-65
2022/12/22 16:09:31;;;;;;;44.90;29.43;;;9.20;96.00;;;;;;5032953;28;20283;-64
2022/12/22 16:11:58;;;;;;;43.50;28.67;;;9.20;95.80;;;;;;5032978;28;20616;-65
2022/12/22 16:14:25;;;;;;;43.97;29.93;;;9.10;95.80;;;;;;5034779;28;20625;-65
2022/12/22 16:16:52;;;;;;;42.60;30.53;;;9.10;95.90;;;;;;5036980;28;20249;-67
2022/12/22 16:19:20;;;;;;;41.67;27.33;;;9.00;95.90;;;;;;5034550;28;20235;-65
2022/12/22 16:21:52;;;;;;;52.80;33.37;;;9.00;96.00;;;;;;5034284;28;20217;-64
2022/12/22 16:24:33;;;;;;;52.90;34.13;;;9.00;96.00;;;;;;5032256;28;20259;-65
2022/12/22 16:27:01;;;;;;;38.93;28.37;;;8.90;96.10;;;;;;5035978;28;20419;-65
2022/12/22 16:29:29;;;;;;;49.20;31.17;;;8.90;96.10;;;;;;5034410;28;20232;-65
2022/12/22 16:32:27;;;;;;;60.40;36.90;;;8.90;96.20;;;;;;5033052;28;20217;-66
2022/12/22 16:35:16;;;;;;;49.70;31.60;;;8.80;96.20;;;;;;5039104;28;20208;-64
2022/12/22 16:37:43;;;;;;;48.27;31.80;;;8.80;96.20;;;;;;5034602;28;20209;-65
2022/12/22 16:40:12;;;;;;;49.87;31.33;;;8.70;96.20;;;;;;5033912;28;20643;-64
2022/12/22 16:42:42;;;;;;;44.23;30.00;;;8.70;96.30;;;;;;5032862;28;20209;-66
2022/12/22 16:45:29;;;;;;;48.43;32.27;;;8.70;96.40;;;;;;5033788;28;20271;-65